sensor_id;sensor_type;location;lat;lon;timestamp;P1;durP1;ratioP1;P2;durP2;ratioP2
21170;SDS011;10743;52.160;20.910;2023-02-01T00:01:06;16.33;;;5.50;;
21170;SDS011;10743;52.160;20.910;2023-02-01T00:03:34;6.93;;;4.50;;
21170;SDS011;10743;52.160;20.910;2023-02-01T00:06:02;9.13;;;4.73;;
21170;SDS011;10743;52.160;20.910;2023-02-01T00:08:29;12.70;;;5.33;;
21170;SDS011;10743;52.160;20.910;2023-02-01T00:11:00;10.37;;;4.87;;
21170;SDS011;10743;52.160;20.910;2023-02-01T00:13:33;6.40;;;4.10;;
21170;SDS011;10743;52.160;20.910;2023-02-01T00:16:10;10.23;;;4.97;;
21170;SDS011;10743;52.160;20.910;2023-02-01T00:18:43;9.37;;;3.90;;
21170;SDS011;10743;52.160;20.910;2023-02-01T00:21:11;6.63;;;3.10;;
21170;SDS011;10743;52.160;20.910;2023-02-01T00:23:40;6.90;;;3.00;;
21170;SDS011;10743;52.160;20.910;2023-02-01T00:26:11;6.77;;;3.47;;
21170;SDS011;10743;52.160;20.910;2023-02-01T00:28:45;7.70;;;3.23;;
21170;SDS011;10743;52.160;20.910;2023-02-01T00:31:13;8.47;;;4.23;;
21170;SDS011;10743;52.160;20.910;2023-02-01T00:33:41;7.87;;;3.63;;
21170;SDS011;10743;52.160;20.910;2023-02-01T00:36:08;9.83;;;4.10;;
21170;SDS011;10743;52.160;20.910;2023-02-01T00:38:36;7.83;;;4.23;;
21170;SDS011;10743;52.160;20.910;2023-02-01T00:41:06;12.93;;;5.30;;
21170;SDS011;10743;52.160;20.910;2023-02-01T00:43:36;16.60;;;4.80;;
21170;SDS011;10743;52.160;20.910;2023-02-01T00:46:03;7.27;;;3.73;;
21170;SDS011;10743;52.160;20.910;2023-02-01T00:48:30;11.07;;;4.30;;
21170;SDS011;10743;52.160;20.910;2023-02-01T00:51:02;9.60;;;4.00;;
21170;SDS011;10743;52.160;20.910;2023-02-01T00:53:35;9.37;;;3.40;;
21170;SDS011;10743;52.160;20.910;2023-02-01T00:56:03;8.00;;;3.90;;
21170;SDS011;10743;52.160;20.910;2023-02-01T00:58:31;6.87;;;2.97;;
21170;SDS011;10743;52.160;20.910;2023-02-01T01:01:11;10.40;;;3.90;;
21170;SDS011;10743;52.160;20.910;2023-02-01T01:03:43;6.90;;;2.60;;
21170;SDS011;10743;52.160;20.910;2023-02-01T01:06:14;6.50;;;2.93;;
21170;SDS011;10743;52.160;20.910;2023-02-01T01:08:44;7.13;;;2.10;;
21170;SDS011;10743;52.160;20.910;2023-02-01T01:11:13;5.70;;;2.30;;
21170;SDS011;10743;52.160;20.910;2023-02-01T01:13:47;5.17;;;2.23;;
21170;SDS011;10743;52.160;20.910;2023-02-01T01:16:16;9.33;;;3.23;;
21170;SDS011;10743;52.160;20.910;2023-02-01T01:18:44;6.80;;;2.57;;
21170;SDS011;10743;52.160;20.910;2023-02-01T01:21:13;8.07;;;2.37;;
21170;SDS011;10743;52.160;20.910;2023-02-01T01:23:43;5.67;;;2.20;;
21170;SDS011;10743;52.160;20.910;2023-02-01T01:26:16;7.63;;;3.13;;
21170;SDS011;10743;52.160;20.910;2023-02-01T01:28:46;5.13;;;1.87;;
21170;SDS011;10743;52.160;20.910;2023-02-01T01:31:14;8.23;;;2.40;;
21170;SDS011;10743;52.160;20.910;2023-02-01T01:33:43;7.20;;;2.47;;
21170;SDS011;10743;52.160;20.910;2023-02-01T01:36:15;4.17;;;1.70;;
21170;SDS011;10743;52.160;20.910;2023-02-01T01:38:42;7.70;;;2.50;;
21170;SDS011;10743;52.160;20.910;2023-02-01T01:41:12;10.60;;;4.30;;
21170;SDS011;10743;52.160;20.910;2023-02-01T01:46:31;8.50;;;2.50;;
21170;SDS011;10743;52.160;20.910;2023-02-01T01:49:04;5.23;;;2.10;;
21170;SDS011;10743;52.160;20.910;2023-02-01T01:51:42;5.83;;;2.33;;
21170;SDS011;10743;52.160;20.910;2023-02-01T01:54:23;11.97;;;2.80;;
21170;SDS011;10743;52.160;20.910;2023-02-01T01:56:57;8.93;;;2.27;;
21170;SDS011;10743;52.160;20.910;2023-02-01T01:59:31;6.07;;;2.17;;
21170;SDS011;10743;52.160;20.910;2023-02-01T02:02:02;6.90;;;2.57;;
21170;SDS011;10743;52.160;20.910;2023-02-01T02:04:31;5.40;;;2.47;;
21170;SDS011;10743;52.160;20.910;2023-02-01T02:06:59;11.43;;;4.93;;
21170;SDS011;10743;52.160;20.910;2023-02-01T02:09:31;13.20;;;4.30;;
21170;SDS011;10743;52.160;20.910;2023-02-01T02:11:58;13.20;;;4.43;;
21170;SDS011;10743;52.160;20.910;2023-02-01T02:14:25;14.90;;;4.37;;
21170;SDS011;10743;52.160;20.910;2023-02-01T02:25:53;10.23;;;2.40;;
21170;SDS011;10743;52.160;20.910;2023-02-01T02:35:14;8.37;;;2.40;;
21170;SDS011;10743;52.160;20.910;2023-02-01T02:38:01;6.97;;;2.47;;
21170;SDS011;10743;52.160;20.910;2023-02-01T02:41:27;8.40;;;2.30;;
21170;SDS011;10743;52.160;20.910;2023-02-01T02:44:02;6.27;;;2.33;;
21170;SDS011;10743;52.160;20.910;2023-02-01T02:46:57;6.10;;;2.30;;
21170;SDS011;10743;52.160;20.910;2023-02-01T02:49:51;10.00;;;2.77;;
21170;SDS011;10743;52.160;20.910;2023-02-01T02:53:13;5.73;;;2.27;;
21170;SDS011;10743;52.160;20.910;2023-02-01T02:56:04;7.13;;;2.20;;
21170;SDS011;10743;52.160;20.910;2023-02-01T02:58:52;7.67;;;2.13;;
21170;SDS011;10743;52.160;20.910;2023-02-01T03:01:38;6.67;;;2.13;;
21170;SDS011;10743;52.160;20.910;2023-02-01T03:04:25;14.03;;;2.90;;
21170;SDS011;10743;52.160;20.910;2023-02-01T03:06:53;5.67;;;2.17;;
21170;SDS011;10743;52.160;20.910;2023-02-01T03:09:31;8.90;;;2.37;;
21170;SDS011;10743;52.160;20.910;2023-02-01T03:12:04;7.27;;;2.20;;
21170;SDS011;10743;52.160;20.910;2023-02-01T03:14:56;10.70;;;3.07;;
21170;SDS011;10743;52.160;20.910;2023-02-01T03:17:32;10.13;;;2.13;;
21170;SDS011;10743;52.160;20.910;2023-02-01T03:20:06;8.03;;;2.00;;
21170;SDS011;10743;52.160;20.910;2023-02-01T03:22:37;6.03;;;2.10;;
21170;SDS011;10743;52.160;20.910;2023-02-01T03:25:17;6.77;;;2.07;;
21170;SDS011;10743;52.160;20.910;2023-02-01T03:27:54;7.63;;;2.37;;
21170;SDS011;10743;52.160;20.910;2023-02-01T03:30:34;6.03;;;2.17;;
21170;SDS011;10743;52.160;20.910;2023-02-01T03:33:06;10.07;;;2.40;;
21170;SDS011;10743;52.160;20.910;2023-02-01T03:39:07;11.40;;;2.53;;
21170;SDS011;10743;52.160;20.910;2023-02-01T03:42:16;16.17;;;2.80;;
21170;SDS011;10743;52.160;20.910;2023-02-01T03:45:11;7.43;;;2.10;;
21170;SDS011;10743;52.160;20.910;2023-02-01T03:47:47;13.77;;;2.83;;
21170;SDS011;10743;52.160;20.910;2023-02-01T03:50:17;8.67;;;2.37;;
21170;SDS011;10743;52.160;20.910;2023-02-01T03:52:52;15.40;;;2.17;;
21170;SDS011;10743;52.160;20.910;2023-02-01T03:55:35;8.93;;;2.80;;
21170;SDS011;10743;52.160;20.910;2023-02-01T03:58:07;7.17;;;2.57;;
21170;SDS011;10743;52.160;20.910;2023-02-01T04:00:43;10.53;;;2.30;;
21170;SDS011;10743;52.160;20.910;2023-02-01T04:03:22;6.40;;;2.10;;
21170;SDS011;10743;52.160;20.910;2023-02-01T04:05:51;10.87;;;2.37;;
21170;SDS011;10743;52.160;20.910;2023-02-01T04:08:22;8.87;;;2.40;;
21170;SDS011;10743;52.160;20.910;2023-02-01T04:10:50;8.50;;;2.37;;
21170;SDS011;10743;52.160;20.910;2023-02-01T04:13:17;12.97;;;2.47;;
21170;SDS011;10743;52.160;20.910;2023-02-01T04:15:45;10.33;;;2.00;;
21170;SDS011;10743;52.160;20.910;2023-02-01T04:18:16;8.53;;;2.60;;
21170;SDS011;10743;52.160;20.910;2023-02-01T04:20:43;10.27;;;2.57;;
21170;SDS011;10743;52.160;20.910;2023-02-01T04:23:11;6.93;;;2.17;;
21170;SDS011;10743;52.160;20.910;2023-02-01T04:25:38;9.70;;;2.40;;
21170;SDS011;10743;52.160;20.910;2023-02-01T04:28:05;7.53;;;1.87;;
21170;SDS011;10743;52.160;20.910;2023-02-01T04:30:33;9.23;;;2.00;;
21170;SDS011;10743;52.160;20.910;2023-02-01T04:33:00;7.67;;;2.43;;
21170;SDS011;10743;52.160;20.910;2023-02-01T04:35:30;10.23;;;2.20;;
21170;SDS011;10743;52.160;20.910;2023-02-01T04:37:57;11.53;;;2.47;;
21170;SDS011;10743;52.160;20.910;2023-02-01T04:40:24;7.57;;;2.37;;
21170;SDS011;10743;52.160;20.910;2023-02-01T04:42:51;14.13;;;3.03;;
21170;SDS011;10743;52.160;20.910;2023-02-01T04:45:18;10.73;;;2.27;;
21170;SDS011;10743;52.160;20.910;2023-02-01T04:47:45;9.83;;;2.33;;
21170;SDS011;10743;52.160;20.910;2023-02-01T04:50:14;6.77;;;2.33;;
21170;SDS011;10743;52.160;20.910;2023-02-01T04:52:42;7.73;;;2.03;;
21170;SDS011;10743;52.160;20.910;2023-02-01T04:55:11;9.00;;;2.53;;
21170;SDS011;10743;52.160;20.910;2023-02-01T04:57:39;13.93;;;2.80;;
21170;SDS011;10743;52.160;20.910;2023-02-01T05:00:08;6.77;;;2.10;;
21170;SDS011;10743;52.160;20.910;2023-02-01T05:02:36;11.23;;;2.30;;
21170;SDS011;10743;52.160;20.910;2023-02-01T05:05:04;8.70;;;2.40;;
21170;SDS011;10743;52.160;20.910;2023-02-01T05:07:32;12.87;;;3.67;;
21170;SDS011;10743;52.160;20.910;2023-02-01T05:09:59;45.13;;;17.27;;
21170;SDS011;10743;52.160;20.910;2023-02-01T05:12:26;21.57;;;6.20;;
21170;SDS011;10743;52.160;20.910;2023-02-01T05:15:11;13.63;;;4.77;;
21170;SDS011;10743;52.160;20.910;2023-02-01T05:17:38;9.83;;;3.17;;
21170;SDS011;10743;52.160;20.910;2023-02-01T05:20:07;10.03;;;3.63;;
21170;SDS011;10743;52.160;20.910;2023-02-01T05:22:35;13.13;;;2.83;;
21170;SDS011;10743;52.160;20.910;2023-02-01T05:25:02;10.87;;;3.13;;
21170;SDS011;10743;52.160;20.910;2023-02-01T05:27:32;13.33;;;2.77;;
21170;SDS011;10743;52.160;20.910;2023-02-01T05:29:59;18.23;;;4.50;;
21170;SDS011;10743;52.160;20.910;2023-02-01T05:32:26;16.93;;;4.93;;
21170;SDS011;10743;52.160;20.910;2023-02-01T05:34:53;8.80;;;3.20;;
21170;SDS011;10743;52.160;20.910;2023-02-01T05:37:20;12.43;;;3.90;;
21170;SDS011;10743;52.160;20.910;2023-02-01T05:39:47;7.33;;;2.50;;
21170;SDS011;10743;52.160;20.910;2023-02-01T05:42:14;10.50;;;2.60;;
21170;SDS011;10743;52.160;20.910;2023-02-01T05:44:42;16.03;;;4.33;;
21170;SDS011;10743;52.160;20.910;2023-02-01T05:47:09;16.40;;;4.33;;
21170;SDS011;10743;52.160;20.910;2023-02-01T05:49:36;14.40;;;4.47;;
21170;SDS011;10743;52.160;20.910;2023-02-01T05:52:03;10.20;;;2.87;;
21170;SDS011;10743;52.160;20.910;2023-02-01T05:54:31;10.73;;;3.50;;
21170;SDS011;10743;52.160;20.910;2023-02-01T05:56:58;14.67;;;5.10;;
21170;SDS011;10743;52.160;20.910;2023-02-01T05:59:25;14.70;;;4.17;;
21170;SDS011;10743;52.160;20.910;2023-02-01T06:01:52;15.00;;;4.43;;
21170;SDS011;10743;52.160;20.910;2023-02-01T06:04:19;16.10;;;5.43;;
21170;SDS011;10743;52.160;20.910;2023-02-01T06:06:46;12.13;;;3.73;;
21170;SDS011;10743;52.160;20.910;2023-02-01T06:09:16;11.90;;;3.47;;
21170;SDS011;10743;52.160;20.910;2023-02-01T06:11:43;8.73;;;2.87;;
21170;SDS011;10743;52.160;20.910;2023-02-01T06:14:11;11.60;;;3.20;;
21170;SDS011;10743;52.160;20.910;2023-02-01T06:16:38;8.00;;;2.57;;
21170;SDS011;10743;52.160;20.910;2023-02-01T06:19:05;10.73;;;2.60;;
21170;SDS011;10743;52.160;20.910;2023-02-01T06:21:32;14.37;;;4.40;;
21170;SDS011;10743;52.160;20.910;2023-02-01T06:23:59;13.03;;;3.47;;
21170;SDS011;10743;52.160;20.910;2023-02-01T06:26:26;10.63;;;2.77;;
21170;SDS011;10743;52.160;20.910;2023-02-01T06:28:55;9.03;;;2.33;;
21170;SDS011;10743;52.160;20.910;2023-02-01T06:31:22;12.63;;;3.03;;
21170;SDS011;10743;52.160;20.910;2023-02-01T06:33:50;9.13;;;3.30;;
21170;SDS011;10743;52.160;20.910;2023-02-01T06:36:18;10.43;;;2.90;;
21170;SDS011;10743;52.160;20.910;2023-02-01T06:38:47;9.47;;;2.37;;
21170;SDS011;10743;52.160;20.910;2023-02-01T06:41:14;10.10;;;3.03;;
21170;SDS011;10743;52.160;20.910;2023-02-01T06:43:43;9.43;;;3.27;;
21170;SDS011;10743;52.160;20.910;2023-02-01T06:46:12;13.73;;;4.83;;
21170;SDS011;10743;52.160;20.910;2023-02-01T06:48:40;6.53;;;3.10;;
21170;SDS011;10743;52.160;20.910;2023-02-01T06:51:20;6.23;;;2.10;;
21170;SDS011;10743;52.160;20.910;2023-02-01T06:53:51;8.77;;;2.50;;
21170;SDS011;10743;52.160;20.910;2023-02-01T06:56:18;10.77;;;2.93;;
21170;SDS011;10743;52.160;20.910;2023-02-01T06:58:47;7.57;;;2.30;;
21170;SDS011;10743;52.160;20.910;2023-02-01T07:01:14;9.80;;;2.53;;
21170;SDS011;10743;52.160;20.910;2023-02-01T07:03:42;8.77;;;2.70;;
21170;SDS011;10743;52.160;20.910;2023-02-01T07:06:13;8.87;;;2.90;;
21170;SDS011;10743;52.160;20.910;2023-02-01T07:08:40;11.70;;;2.97;;
21170;SDS011;10743;52.160;20.910;2023-02-01T07:11:09;12.40;;;2.90;;
21170;SDS011;10743;52.160;20.910;2023-02-01T07:13:38;11.60;;;2.83;;
21170;SDS011;10743;52.160;20.910;2023-02-01T07:16:07;9.07;;;2.73;;
21170;SDS011;10743;52.160;20.910;2023-02-01T07:18:41;14.47;;;2.70;;
21170;SDS011;10743;52.160;20.910;2023-02-01T07:21:08;10.27;;;2.53;;
21170;SDS011;10743;52.160;20.910;2023-02-01T07:23:35;9.27;;;2.63;;
21170;SDS011;10743;52.160;20.910;2023-02-01T07:26:05;10.33;;;3.20;;
21170;SDS011;10743;52.160;20.910;2023-02-01T07:28:34;7.30;;;2.57;;
21170;SDS011;10743;52.160;20.910;2023-02-01T07:31:06;7.33;;;2.77;;
21170;SDS011;10743;52.160;20.910;2023-02-01T07:33:39;10.43;;;2.77;;
21170;SDS011;10743;52.160;20.910;2023-02-01T07:36:07;8.23;;;2.40;;
21170;SDS011;10743;52.160;20.910;2023-02-01T07:38:39;7.90;;;2.53;;
21170;SDS011;10743;52.160;20.910;2023-02-01T07:41:06;10.93;;;3.00;;
21170;SDS011;10743;52.160;20.910;2023-02-01T07:43:34;13.40;;;3.07;;
21170;SDS011;10743;52.160;20.910;2023-02-01T07:46:02;14.37;;;2.97;;
21170;SDS011;10743;52.160;20.910;2023-02-01T07:48:31;8.47;;;2.57;;
21170;SDS011;10743;52.160;20.910;2023-02-01T07:51:01;10.83;;;3.20;;
21170;SDS011;10743;52.160;20.910;2023-02-01T07:53:32;11.47;;;2.93;;
21170;SDS011;10743;52.160;20.910;2023-02-01T07:56:00;13.97;;;3.07;;
21170;SDS011;10743;52.160;20.910;2023-02-01T07:58:29;10.87;;;3.20;;
21170;SDS011;10743;52.160;20.910;2023-02-01T08:00:56;10.23;;;3.90;;
21170;SDS011;10743;52.160;20.910;2023-02-01T08:03:42;13.43;;;3.57;;
21170;SDS011;10743;52.160;20.910;2023-02-01T08:06:09;13.40;;;3.67;;
21170;SDS011;10743;52.160;20.910;2023-02-01T08:08:36;16.33;;;3.10;;
21170;SDS011;10743;52.160;20.910;2023-02-01T08:11:04;8.93;;;2.60;;
21170;SDS011;10743;52.160;20.910;2023-02-01T08:13:33;18.20;;;3.30;;
21170;SDS011;10743;52.160;20.910;2023-02-01T08:16:02;9.47;;;3.20;;
21170;SDS011;10743;52.160;20.910;2023-02-01T08:18:32;8.80;;;2.57;;
21170;SDS011;10743;52.160;20.910;2023-02-01T08:21:04;9.40;;;2.80;;
21170;SDS011;10743;52.160;20.910;2023-02-01T08:23:34;11.07;;;2.70;;
21170;SDS011;10743;52.160;20.910;2023-02-01T08:28:44;10.83;;;2.73;;
21170;SDS011;10743;52.160;20.910;2023-02-01T08:31:15;9.67;;;2.93;;
21170;SDS011;10743;52.160;20.910;2023-02-01T08:33:48;11.97;;;3.27;;
21170;SDS011;10743;52.160;20.910;2023-02-01T08:36:18;10.80;;;3.40;;
21170;SDS011;10743;52.160;20.910;2023-02-01T08:38:46;15.50;;;3.40;;
21170;SDS011;10743;52.160;20.910;2023-02-01T08:41:15;9.00;;;3.37;;
21170;SDS011;10743;52.160;20.910;2023-02-01T08:43:45;15.00;;;3.10;;
21170;SDS011;10743;52.160;20.910;2023-02-01T08:46:12;9.03;;;2.50;;
21170;SDS011;10743;52.160;20.910;2023-02-01T08:48:41;12.00;;;2.90;;
21170;SDS011;10743;52.160;20.910;2023-02-01T08:51:09;12.03;;;3.37;;
21170;SDS011;10743;52.160;20.910;2023-02-01T08:53:38;10.00;;;3.10;;
21170;SDS011;10743;52.160;20.910;2023-02-01T08:56:10;8.30;;;2.60;;
21170;SDS011;10743;52.160;20.910;2023-02-01T08:58:39;13.40;;;3.17;;
21170;SDS011;10743;52.160;20.910;2023-02-01T09:01:08;11.57;;;3.80;;
21170;SDS011;10743;52.160;20.910;2023-02-01T09:03:41;12.20;;;2.27;;
21170;SDS011;10743;52.160;20.910;2023-02-01T09:06:13;13.27;;;3.13;;
21170;SDS011;10743;52.160;20.910;2023-02-01T09:08:41;11.77;;;2.47;;
21170;SDS011;10743;52.160;20.910;2023-02-01T09:11:14;12.53;;;2.80;;
21170;SDS011;10743;52.160;20.910;2023-02-01T09:13:43;14.20;;;3.37;;
21170;SDS011;10743;52.160;20.910;2023-02-01T09:16:11;11.37;;;2.90;;
21170;SDS011;10743;52.160;20.910;2023-02-01T09:18:38;17.50;;;4.10;;
21170;SDS011;10743;52.160;20.910;2023-02-01T09:21:21;10.97;;;2.90;;
21170;SDS011;10743;52.160;20.910;2023-02-01T09:23:50;18.20;;;3.80;;
21170;SDS011;10743;52.160;20.910;2023-02-01T09:26:17;9.23;;;2.90;;
21170;SDS011;10743;52.160;20.910;2023-02-01T09:28:48;8.97;;;2.57;;
21170;SDS011;10743;52.160;20.910;2023-02-01T09:31:15;8.10;;;2.97;;
21170;SDS011;10743;52.160;20.910;2023-02-01T09:33:42;13.07;;;2.70;;
21170;SDS011;10743;52.160;20.910;2023-02-01T09:36:09;11.07;;;2.33;;
21170;SDS011;10743;52.160;20.910;2023-02-01T09:38:37;9.70;;;2.80;;
21170;SDS011;10743;52.160;20.910;2023-02-01T09:41:21;10.03;;;2.57;;
21170;SDS011;10743;52.160;20.910;2023-02-01T09:44:38;8.50;;;2.27;;
21170;SDS011;10743;52.160;20.910;2023-02-01T09:47:14;6.90;;;2.57;;
21170;SDS011;10743;52.160;20.910;2023-02-01T09:49:48;9.87;;;2.90;;
21170;SDS011;10743;52.160;20.910;2023-02-01T09:52:31;10.23;;;2.93;;
21170;SDS011;10743;52.160;20.910;2023-02-01T09:55:22;13.70;;;3.53;;
21170;SDS011;10743;52.160;20.910;2023-02-01T09:58:02;9.77;;;2.90;;
21170;SDS011;10743;52.160;20.910;2023-02-01T10:00:37;13.17;;;3.17;;
21170;SDS011;10743;52.160;20.910;2023-02-01T10:03:10;7.93;;;2.80;;
21170;SDS011;10743;52.160;20.910;2023-02-01T10:05:46;7.70;;;2.97;;
21170;SDS011;10743;52.160;20.910;2023-02-01T10:14:42;10.27;;;3.37;;
21170;SDS011;10743;52.160;20.910;2023-02-01T10:17:30;7.73;;;3.57;;
21170;SDS011;10743;52.160;20.910;2023-02-01T10:29:00;10.57;;;2.80;;
21170;SDS011;10743;52.160;20.910;2023-02-01T10:31:32;14.33;;;3.23;;
21170;SDS011;10743;52.160;20.910;2023-02-01T10:34:26;10.87;;;3.70;;
21170;SDS011;10743;52.160;20.910;2023-02-01T10:37:18;11.20;;;3.57;;
21170;SDS011;10743;52.160;20.910;2023-02-01T10:39:54;14.73;;;3.70;;
21170;SDS011;10743;52.160;20.910;2023-02-01T10:42:26;9.63;;;3.20;;
21170;SDS011;10743;52.160;20.910;2023-02-01T10:44:58;8.63;;;2.80;;
21170;SDS011;10743;52.160;20.910;2023-02-01T10:47:27;15.50;;;3.80;;
21170;SDS011;10743;52.160;20.910;2023-02-01T10:49:55;12.33;;;3.20;;
21170;SDS011;10743;52.160;20.910;2023-02-01T10:52:41;14.20;;;3.57;;
21170;SDS011;10743;52.160;20.910;2023-02-01T10:55:26;23.77;;;5.03;;
21170;SDS011;10743;52.160;20.910;2023-02-01T10:57:58;16.53;;;3.90;;
21170;SDS011;10743;52.160;20.910;2023-02-01T11:00:34;10.73;;;3.17;;
21170;SDS011;10743;52.160;20.910;2023-02-01T11:09:01;15.97;;;4.70;;
21170;SDS011;10743;52.160;20.910;2023-02-01T11:14:19;21.40;;;5.33;;
21170;SDS011;10743;52.160;20.910;2023-02-01T11:19:55;23.43;;;5.63;;
21170;SDS011;10743;52.160;20.910;2023-02-01T11:22:27;19.80;;;4.03;;
21170;SDS011;10743;52.160;20.910;2023-02-01T11:24:56;13.47;;;3.30;;
21170;SDS011;10743;52.160;20.910;2023-02-01T11:27:25;11.77;;;3.30;;
21170;SDS011;10743;52.160;20.910;2023-02-01T11:29:55;17.60;;;4.30;;
21170;SDS011;10743;52.160;20.910;2023-02-01T11:32:26;37.93;;;11.33;;
21170;SDS011;10743;52.160;20.910;2023-02-01T11:34:59;41.50;;;11.70;;
21170;SDS011;10743;52.160;20.910;2023-02-01T11:37:39;22.20;;;4.63;;
21170;SDS011;10743;52.160;20.910;2023-02-01T11:45:40;29.93;;;5.07;;
21170;SDS011;10743;52.160;20.910;2023-02-01T11:48:08;21.50;;;6.07;;
21170;SDS011;10743;52.160;20.910;2023-02-01T11:54:07;23.20;;;6.23;;
21170;SDS011;10743;52.160;20.910;2023-02-01T12:12:36;175.23;;;52.70;;
21170;SDS011;10743;52.160;20.910;2023-02-01T12:18:18;199.93;;;57.50;;
21170;SDS011;10743;52.160;20.910;2023-02-01T12:21:03;199.13;;;59.43;;
21170;SDS011;10743;52.160;20.910;2023-02-01T12:23:44;192.57;;;55.77;;
21170;SDS011;10743;52.160;20.910;2023-02-01T12:26:54;180.90;;;53.47;;
21170;SDS011;10743;52.160;20.910;2023-02-01T12:41:19;168.97;;;51.23;;
21170;SDS011;10743;52.160;20.910;2023-02-01T12:46:33;175.50;;;51.63;;
21170;SDS011;10743;52.160;20.910;2023-02-01T12:51:58;187.33;;;56.83;;
21170;SDS011;10743;52.160;20.910;2023-02-01T12:54:45;211.23;;;63.07;;
21170;SDS011;10743;52.160;20.910;2023-02-01T12:57:25;176.33;;;54.13;;
21170;SDS011;10743;52.160;20.910;2023-02-01T13:06:07;166.23;;;53.07;;
21170;SDS011;10743;52.160;20.910;2023-02-01T13:09:14;174.30;;;52.40;;
21170;SDS011;10743;52.160;20.910;2023-02-01T13:11:54;169.50;;;51.77;;
21170;SDS011;10743;52.160;20.910;2023-02-01T13:17:28;193.80;;;54.57;;
21170;SDS011;10743;52.160;20.910;2023-02-01T13:19:59;178.13;;;52.27;;
21170;SDS011;10743;52.160;20.910;2023-02-01T13:22:40;184.80;;;52.70;;
21170;SDS011;10743;52.160;20.910;2023-02-01T13:25:47;179.33;;;52.43;;
21170;SDS011;10743;52.160;20.910;2023-02-01T13:28:18;184.07;;;53.47;;
21170;SDS011;10743;52.160;20.910;2023-02-01T13:42:59;179.87;;;52.37;;
21170;SDS011;10743;52.160;20.910;2023-02-01T13:45:51;183.57;;;53.13;;
21170;SDS011;10743;52.160;20.910;2023-02-01T13:48:25;176.33;;;53.17;;
21170;SDS011;10743;52.160;20.910;2023-02-01T13:50:59;172.13;;;52.50;;
21170;SDS011;10743;52.160;20.910;2023-02-01T13:53:29;178.33;;;52.87;;
21170;SDS011;10743;52.160;20.910;2023-02-01T13:56:01;167.37;;;51.17;;
21170;SDS011;10743;52.160;20.910;2023-02-01T13:58:49;171.17;;;51.50;;
21170;SDS011;10743;52.160;20.910;2023-02-01T14:03:48;174.73;;;52.63;;
21170;SDS011;10743;52.160;20.910;2023-02-01T14:15:18;178.87;;;52.60;;
21170;SDS011;10743;52.160;20.910;2023-02-01T14:17:50;192.27;;;54.47;;
21170;SDS011;10743;52.160;20.910;2023-02-01T14:23:20;169.20;;;51.87;;
21170;SDS011;10743;52.160;20.910;2023-02-01T14:25:59;181.53;;;53.37;;
21170;SDS011;10743;52.160;20.910;2023-02-01T14:28:30;180.17;;;54.43;;
21170;SDS011;10743;52.160;20.910;2023-02-01T14:30:58;178.00;;;53.37;;
21170;SDS011;10743;52.160;20.910;2023-02-01T14:33:26;175.53;;;52.40;;
21170;SDS011;10743;52.160;20.910;2023-02-01T14:38:35;181.13;;;53.63;;
21170;SDS011;10743;52.160;20.910;2023-02-01T14:41:37;178.53;;;52.67;;
21170;SDS011;10743;52.160;20.910;2023-02-01T14:49:56;169.00;;;51.27;;
21170;SDS011;10743;52.160;20.910;2023-02-01T15:01:21;177.93;;;53.27;;
21170;SDS011;10743;52.160;20.910;2023-02-01T15:04:06;185.27;;;55.50;;
21170;SDS011;10743;52.160;20.910;2023-02-01T15:06:45;168.67;;;51.70;;
21170;SDS011;10743;52.160;20.910;2023-02-01T15:09:27;177.93;;;53.23;;
21170;SDS011;10743;52.160;20.910;2023-02-01T15:14:42;175.40;;;53.57;;
21170;SDS011;10743;52.160;20.910;2023-02-01T15:17:21;171.47;;;52.40;;
21170;SDS011;10743;52.160;20.910;2023-02-01T15:20:01;173.70;;;52.13;;
21170;SDS011;10743;52.160;20.910;2023-02-01T15:22:56;165.13;;;51.53;;
21170;SDS011;10743;52.160;20.910;2023-02-01T15:25:37;182.13;;;55.50;;
21170;SDS011;10743;52.160;20.910;2023-02-01T15:28:05;200.87;;;60.73;;
21170;SDS011;10743;52.160;20.910;2023-02-01T15:30:40;201.50;;;61.00;;
21170;SDS011;10743;52.160;20.910;2023-02-01T15:33:24;198.07;;;58.13;;
21170;SDS011;10743;52.160;20.910;2023-02-01T15:35:54;183.17;;;55.00;;
21170;SDS011;10743;52.160;20.910;2023-02-01T15:38:39;179.53;;;53.53;;
21170;SDS011;10743;52.160;20.910;2023-02-01T15:41:15;174.00;;;53.17;;
21170;SDS011;10743;52.160;20.910;2023-02-01T15:46:35;175.77;;;52.63;;
21170;SDS011;10743;52.160;20.910;2023-02-01T15:49:12;175.63;;;52.87;;
21170;SDS011;10743;52.160;20.910;2023-02-01T15:51:47;175.73;;;53.80;;
21170;SDS011;10743;52.160;20.910;2023-02-01T15:54:17;178.47;;;53.17;;
21170;SDS011;10743;52.160;20.910;2023-02-01T15:56:59;175.27;;;52.87;;
21170;SDS011;10743;52.160;20.910;2023-02-01T15:59:30;176.53;;;52.90;;
21170;SDS011;10743;52.160;20.910;2023-02-01T16:02:04;177.03;;;53.57;;
21170;SDS011;10743;52.160;20.910;2023-02-01T16:04:31;177.57;;;54.23;;
21170;SDS011;10743;52.160;20.910;2023-02-01T16:07:00;174.33;;;53.57;;
21170;SDS011;10743;52.160;20.910;2023-02-01T16:09:40;177.20;;;53.23;;
21170;SDS011;10743;52.160;20.910;2023-02-01T16:12:31;168.83;;;51.97;;
21170;SDS011;10743;52.160;20.910;2023-02-01T16:15:12;162.43;;;51.53;;
21170;SDS011;10743;52.160;20.910;2023-02-01T16:17:40;177.53;;;53.07;;
21170;SDS011;10743;52.160;20.910;2023-02-01T16:20:08;177.43;;;53.93;;
21170;SDS011;10743;52.160;20.910;2023-02-01T16:22:36;174.63;;;53.50;;
21170;SDS011;10743;52.160;20.910;2023-02-01T16:25:04;166.20;;;52.43;;
21170;SDS011;10743;52.160;20.910;2023-02-01T16:27:32;177.60;;;54.77;;
21170;SDS011;10743;52.160;20.910;2023-02-01T16:29:59;190.70;;;56.30;;
21170;SDS011;10743;52.160;20.910;2023-02-01T16:32:27;179.73;;;53.90;;
21170;SDS011;10743;52.160;20.910;2023-02-01T16:34:54;172.17;;;54.27;;
21170;SDS011;10743;52.160;20.910;2023-02-01T16:37:24;340.80;;;253.70;;
21170;SDS011;10743;52.160;20.910;2023-02-01T16:39:53;183.10;;;54.17;;
21170;SDS011;10743;52.160;20.910;2023-02-01T16:42:20;172.87;;;53.10;;
21170;SDS011;10743;52.160;20.910;2023-02-01T16:44:48;170.73;;;53.33;;
21170;SDS011;10743;52.160;20.910;2023-02-01T16:47:19;174.13;;;54.33;;
21170;SDS011;10743;52.160;20.910;2023-02-01T16:49:49;188.63;;;74.60;;
21170;SDS011;10743;52.160;20.910;2023-02-01T16:52:20;169.57;;;52.97;;
21170;SDS011;10743;52.160;20.910;2023-02-01T16:54:50;167.67;;;53.57;;
21170;SDS011;10743;52.160;20.910;2023-02-01T16:57:19;177.20;;;53.57;;
21170;SDS011;10743;52.160;20.910;2023-02-01T16:59:50;176.27;;;53.37;;
21170;SDS011;10743;52.160;20.910;2023-02-01T17:02:18;171.53;;;53.40;;
21170;SDS011;10743;52.160;20.910;2023-02-01T17:04:47;173.83;;;53.10;;
21170;SDS011;10743;52.160;20.910;2023-02-01T17:07:15;182.83;;;54.77;;
21170;SDS011;10743;52.160;20.910;2023-02-01T17:09:45;174.97;;;53.70;;
21170;SDS011;10743;52.160;20.910;2023-02-01T17:12:20;171.47;;;53.07;;
21170;SDS011;10743;52.160;20.910;2023-02-01T17:14:49;179.83;;;53.90;;
21170;SDS011;10743;52.160;20.910;2023-02-01T17:17:17;168.90;;;52.93;;
21170;SDS011;10743;52.160;20.910;2023-02-01T17:20:02;176.07;;;53.47;;
21170;SDS011;10743;52.160;20.910;2023-02-01T17:22:30;174.57;;;54.20;;
21170;SDS011;10743;52.160;20.910;2023-02-01T17:24:58;174.70;;;53.80;;
21170;SDS011;10743;52.160;20.910;2023-02-01T17:27:25;176.73;;;53.87;;